sensor_id;sensor_type;location;lat;lon;timestamp;P1;durP1;ratioP1;P2;durP2;ratioP2
72109;SDS011;59983;52.010;5.420;2023-05-07T00:01:12;9.65;;;8.80;;
72109;SDS011;59983;52.010;5.420;2023-05-07T00:03:38;10.15;;;9.45;;
72109;SDS011;59983;52.010;5.420;2023-05-07T00:06:05;9.23;;;8.63;;
72109;SDS011;59983;52.010;5.420;2023-05-07T00:08:32;10.43;;;8.75;;
72109;SDS011;59983;52.010;5.420;2023-05-07T00:10:59;8.95;;;8.35;;
72109;SDS011;59983;52.010;5.420;2023-05-07T00:13:25;9.52;;;8.90;;
72109;SDS011;59983;52.010;5.420;2023-05-07T00:15:52;8.95;;;8.35;;
72109;SDS011;59983;52.010;5.420;2023-05-07T00:18:19;9.73;;;9.03;;
72109;SDS011;59983;52.010;5.420;2023-05-07T00:20:48;11.60;;;10.63;;
72109;SDS011;59983;52.010;5.420;2023-05-07T00:23:15;9.80;;;8.85;;
72109;SDS011;59983;52.010;5.420;2023-05-07T00:25:41;9.77;;;9.15;;
72109;SDS011;59983;52.010;5.420;2023-05-07T00:28:08;10.45;;;9.40;;
72109;SDS011;59983;52.010;5.420;2023-05-07T00:30:34;10.00;;;9.30;;
72109;SDS011;59983;52.010;5.420;2023-05-07T00:33:01;10.02;;;9.32;;
72109;SDS011;59983;52.010;5.420;2023-05-07T00:35:28;9.93;;;9.23;;
72109;SDS011;59983;52.010;5.420;2023-05-07T00:37:55;9.93;;;9.13;;
72109;SDS011;59983;52.010;5.420;2023-05-07T00:40:22;9.77;;;9.18;;
72109;SDS011;59983;52.010;5.420;2023-05-07T00:42:49;9.57;;;8.97;;
72109;SDS011;59983;52.010;5.420;2023-05-07T00:45:15;9.77;;;9.05;;
72109;SDS011;59983;52.010;5.420;2023-05-07T00:47:43;9.25;;;8.40;;
72109;SDS011;59983;52.010;5.420;2023-05-07T00:50:10;10.07;;;9.18;;
72109;SDS011;59983;52.010;5.420;2023-05-07T00:52:39;10.55;;;8.80;;
72109;SDS011;59983;52.010;5.420;2023-05-07T00:55:06;10.10;;;9.27;;
72109;SDS011;59983;52.010;5.420;2023-05-07T00:57:35;10.10;;;9.07;;
72109;SDS011;59983;52.010;5.420;2023-05-07T01:00:04;9.65;;;8.85;;
72109;SDS011;59983;52.010;5.420;2023-05-07T01:02:31;9.90;;;9.15;;
72109;SDS011;59983;52.010;5.420;2023-05-07T01:04:58;10.10;;;9.30;;
72109;SDS011;59983;52.010;5.420;2023-05-07T01:07:26;10.07;;;9.27;;
72109;SDS011;59983;52.010;5.420;2023-05-07T01:09:53;10.15;;;9.32;;
72109;SDS011;59983;52.010;5.420;2023-05-07T01:12:20;9.48;;;8.68;;
72109;SDS011;59983;52.010;5.420;2023-05-07T01:14:47;10.40;;;9.45;;
72109;SDS011;59983;52.010;5.420;2023-05-07T01:17:16;10.82;;;9.93;;
72109;SDS011;59983;52.010;5.420;2023-05-07T01:19:43;11.03;;;10.03;;
72109;SDS011;59983;52.010;5.420;2023-05-07T01:22:10;11.18;;;10.23;;
72109;SDS011;59983;52.010;5.420;2023-05-07T01:24:37;9.65;;;8.68;;
72109;SDS011;59983;52.010;5.420;2023-05-07T01:27:04;10.70;;;9.60;;
72109;SDS011;59983;52.010;5.420;2023-05-07T01:29:31;11.48;;;10.48;;
72109;SDS011;59983;52.010;5.420;2023-05-07T01:31:58;11.97;;;10.97;;
72109;SDS011;59983;52.010;5.420;2023-05-07T01:34:30;12.27;;;11.10;;
72109;SDS011;59983;52.010;5.420;2023-05-07T01:36:59;11.43;;;10.43;;
72109;SDS011;59983;52.010;5.420;2023-05-07T01:39:27;11.57;;;10.68;;
72109;SDS011;59983;52.010;5.420;2023-05-07T01:41:55;11.85;;;10.75;;
72109;SDS011;59983;52.010;5.420;2023-05-07T01:44:22;11.70;;;10.63;;
72109;SDS011;59983;52.010;5.420;2023-05-07T01:46:50;10.82;;;9.93;;
72109;SDS011;59983;52.010;5.420;2023-05-07T01:49:17;11.45;;;10.55;;
72109;SDS011;59983;52.010;5.420;2023-05-07T01:51:44;12.10;;;11.02;;
72109;SDS011;59983;52.010;5.420;2023-05-07T01:54:10;11.77;;;10.88;;
72109;SDS011;59983;52.010;5.420;2023-05-07T01:56:37;11.43;;;10.20;;
72109;SDS011;59983;52.010;5.420;2023-05-07T01:59:03;11.85;;;10.90;;
72109;SDS011;59983;52.010;5.420;2023-05-07T02:01:31;12.95;;;11.68;;
72109;SDS011;59983;52.010;5.420;2023-05-07T02:03:58;11.93;;;10.95;;
72109;SDS011;59983;52.010;5.420;2023-05-07T02:06:24;11.88;;;11.00;;
72109;SDS011;59983;52.010;5.420;2023-05-07T02:08:51;11.10;;;10.20;;
72109;SDS011;59983;52.010;5.420;2023-05-07T02:11:17;15.30;;;10.40;;
72109;SDS011;59983;52.010;5.420;2023-05-07T02:13:44;11.68;;;10.68;;
72109;SDS011;59983;52.010;5.420;2023-05-07T02:16:11;11.70;;;10.75;;
72109;SDS011;59983;52.010;5.420;2023-05-07T02:18:37;12.80;;;11.50;;
72109;SDS011;59983;52.010;5.420;2023-05-07T02:21:04;13.23;;;12.03;;
72109;SDS011;59983;52.010;5.420;2023-05-07T02:23:30;13.15;;;12.05;;
72109;SDS011;59983;52.010;5.420;2023-05-07T02:25:57;13.55;;;12.48;;
72109;SDS011;59983;52.010;5.420;2023-05-07T02:28:23;14.45;;;12.95;;
72109;SDS011;59983;52.010;5.420;2023-05-07T02:30:50;12.95;;;11.95;;
72109;SDS011;59983;52.010;5.420;2023-05-07T02:33:16;13.10;;;11.87;;
72109;SDS011;59983;52.010;5.420;2023-05-07T02:35:43;13.65;;;12.55;;
72109;SDS011;59983;52.010;5.420;2023-05-07T02:38:09;12.57;;;11.52;;
72109;SDS011;59983;52.010;5.420;2023-05-07T02:40:36;15.55;;;14.00;;
72109;SDS011;59983;52.010;5.420;2023-05-07T02:43:05;14.98;;;13.68;;
72109;SDS011;59983;52.010;5.420;2023-05-07T02:45:32;14.90;;;13.70;;
72109;SDS011;59983;52.010;5.420;2023-05-07T02:47:59;16.02;;;13.90;;
72109;SDS011;59983;52.010;5.420;2023-05-07T02:50:26;15.77;;;14.27;;
72109;SDS011;59983;52.010;5.420;2023-05-07T02:52:53;15.00;;;13.70;;
72109;SDS011;59983;52.010;5.420;2023-05-07T02:55:19;15.88;;;14.25;;
72109;SDS011;59983;52.010;5.420;2023-05-07T02:57:46;16.60;;;15.07;;
72109;SDS011;59983;52.010;5.420;2023-05-07T03:00:16;15.07;;;13.77;;
72109;SDS011;59983;52.010;5.420;2023-05-07T03:02:44;14.95;;;13.63;;
72109;SDS011;59983;52.010;5.420;2023-05-07T03:05:11;17.02;;;15.50;;
72109;SDS011;59983;52.010;5.420;2023-05-07T03:07:38;18.00;;;16.08;;
72109;SDS011;59983;52.010;5.420;2023-05-07T03:10:05;17.23;;;15.73;;
72109;SDS011;59983;52.010;5.420;2023-05-07T03:12:32;18.25;;;16.45;;
72109;SDS011;59983;52.010;5.420;2023-05-07T03:14:58;17.98;;;16.45;;
72109;SDS011;59983;52.010;5.420;2023-05-07T03:17:25;18.45;;;16.88;;
72109;SDS011;59983;52.010;5.420;2023-05-07T03:19:52;19.08;;;16.35;;
72109;SDS011;59983;52.010;5.420;2023-05-07T03:22:18;19.40;;;17.57;;
72109;SDS011;59983;52.010;5.420;2023-05-07T03:24:44;18.73;;;16.92;;
72109;SDS011;59983;52.010;5.420;2023-05-07T03:27:11;18.33;;;16.73;;
72109;SDS011;59983;52.010;5.420;2023-05-07T03:29:37;19.02;;;17.13;;
72109;SDS011;59983;52.010;5.420;2023-05-07T03:32:04;18.08;;;16.50;;
72109;SDS011;59983;52.010;5.420;2023-05-07T03:34:31;19.23;;;17.33;;
72109;SDS011;59983;52.010;5.420;2023-05-07T03:36:58;19.05;;;17.27;;
72109;SDS011;59983;52.010;5.420;2023-05-07T03:39:25;21.00;;;18.35;;
72109;SDS011;59983;52.010;5.420;2023-05-07T03:41:51;18.73;;;16.83;;
72109;SDS011;59983;52.010;5.420;2023-05-07T03:44:18;18.75;;;16.25;;
72109;SDS011;59983;52.010;5.420;2023-05-07T03:46:44;17.87;;;16.17;;
72109;SDS011;59983;52.010;5.420;2023-05-07T03:49:11;18.38;;;16.13;;
72109;SDS011;59983;52.010;5.420;2023-05-07T03:51:37;16.73;;;15.13;;
72109;SDS011;59983;52.010;5.420;2023-05-07T03:54:04;17.38;;;15.50;;
72109;SDS011;59983;52.010;5.420;2023-05-07T03:56:30;16.48;;;14.98;;
72109;SDS011;59983;52.010;5.420;2023-05-07T03:58:57;18.20;;;16.53;;
72109;SDS011;59983;52.010;5.420;2023-05-07T04:01:24;17.25;;;15.52;;
72109;SDS011;59983;52.010;5.420;2023-05-07T04:03:50;16.48;;;15.07;;
72109;SDS011;59983;52.010;5.420;2023-05-07T04:06:17;16.52;;;15.02;;
72109;SDS011;59983;52.010;5.420;2023-05-07T04:08:44;17.77;;;16.17;;
72109;SDS011;59983;52.010;5.420;2023-05-07T04:11:10;17.23;;;15.67;;
72109;SDS011;59983;52.010;5.420;2023-05-07T04:13:37;17.05;;;15.48;;
72109;SDS011;59983;52.010;5.420;2023-05-07T04:16:04;17.10;;;15.65;;
72109;SDS011;59983;52.010;5.420;2023-05-07T04:18:31;17.38;;;15.98;;
72109;SDS011;59983;52.010;5.420;2023-05-07T04:20:58;17.52;;;15.93;;
72109;SDS011;59983;52.010;5.420;2023-05-07T04:23:24;16.23;;;14.83;;
72109;SDS011;59983;52.010;5.420;2023-05-07T04:25:51;16.88;;;15.38;;
72109;SDS011;59983;52.010;5.420;2023-05-07T04:28:17;17.02;;;15.60;;
72109;SDS011;59983;52.010;5.420;2023-05-07T04:30:44;17.83;;;16.23;;
72109;SDS011;59983;52.010;5.420;2023-05-07T04:33:10;18.13;;;16.42;;
72109;SDS011;59983;52.010;5.420;2023-05-07T04:35:37;18.10;;;16.20;;
72109;SDS011;59983;52.010;5.420;2023-05-07T04:38:04;17.35;;;15.75;;
72109;SDS011;59983;52.010;5.420;2023-05-07T04:40:31;16.52;;;15.00;;
72109;SDS011;59983;52.010;5.420;2023-05-07T04:42:58;17.65;;;16.08;;
72109;SDS011;59983;52.010;5.420;2023-05-07T04:45:24;17.75;;;15.88;;
72109;SDS011;59983;52.010;5.420;2023-05-07T04:47:51;17.63;;;15.63;;
72109;SDS011;59983;52.010;5.420;2023-05-07T04:50:17;18.00;;;16.17;;
72109;SDS011;59983;52.010;5.420;2023-05-07T04:52:45;16.15;;;14.63;;
72109;SDS011;59983;52.010;5.420;2023-05-07T04:55:12;20.45;;;16.15;;
72109;SDS011;59983;52.010;5.420;2023-05-07T04:57:38;17.02;;;15.48;;
72109;SDS011;59983;52.010;5.420;2023-05-07T05:00:07;18.33;;;16.57;;
72109;SDS011;59983;52.010;5.420;2023-05-07T05:02:35;17.80;;;16.02;;
72109;SDS011;59983;52.010;5.420;2023-05-07T05:05:02;18.30;;;16.55;;
72109;SDS011;59983;52.010;5.420;2023-05-07T05:07:29;19.27;;;17.35;;
72109;SDS011;59983;52.010;5.420;2023-05-07T05:09:55;18.05;;;16.45;;
72109;SDS011;59983;52.010;5.420;2023-05-07T05:12:23;19.67;;;17.87;;
72109;SDS011;59983;52.010;5.420;2023-05-07T05:14:50;19.90;;;17.80;;
72109;SDS011;59983;52.010;5.420;2023-05-07T05:17:16;18.73;;;16.80;;
72109;SDS011;59983;52.010;5.420;2023-05-07T05:19:43;20.58;;;18.58;;
72109;SDS011;59983;52.010;5.420;2023-05-07T05:22:09;21.08;;;18.80;;
72109;SDS011;59983;52.010;5.420;2023-05-07T05:24:36;21.53;;;18.23;;
72109;SDS011;59983;52.010;5.420;2023-05-07T05:27:02;19.42;;;17.77;;
72109;SDS011;59983;52.010;5.420;2023-05-07T05:29:29;19.00;;;17.00;;
72109;SDS011;59983;52.010;5.420;2023-05-07T05:31:57;17.90;;;16.20;;
72109;SDS011;59983;52.010;5.420;2023-05-07T05:34:24;17.40;;;15.70;;
72109;SDS011;59983;52.010;5.420;2023-05-07T05:36:50;16.70;;;15.20;;
72109;SDS011;59983;52.010;5.420;2023-05-07T05:39:17;16.60;;;14.77;;
72109;SDS011;59983;52.010;5.420;2023-05-07T05:41:44;17.52;;;15.52;;
72109;SDS011;59983;52.010;5.420;2023-05-07T05:44:11;17.20;;;15.60;;
72109;SDS011;59983;52.010;5.420;2023-05-07T05:46:37;17.88;;;15.88;;
72109;SDS011;59983;52.010;5.420;2023-05-07T05:49:04;16.57;;;15.10;;
72109;SDS011;59983;52.010;5.420;2023-05-07T05:51:30;15.88;;;14.30;;
72109;SDS011;59983;52.010;5.420;2023-05-07T05:53:57;16.98;;;15.35;;
72109;SDS011;59983;52.010;5.420;2023-05-07T05:56:23;16.85;;;15.20;;
72109;SDS011;59983;52.010;5.420;2023-05-07T05:58:50;16.70;;;15.13;;
72109;SDS011;59983;52.010;5.420;2023-05-07T06:01:17;17.20;;;15.47;;
72109;SDS011;59983;52.010;5.420;2023-05-07T06:03:45;15.80;;;14.30;;
72109;SDS011;59983;52.010;5.420;2023-05-07T06:06:11;16.65;;;14.95;;
72109;SDS011;59983;52.010;5.420;2023-05-07T06:08:38;16.50;;;14.88;;
72109;SDS011;59983;52.010;5.420;2023-05-07T06:11:04;16.90;;;15.35;;
72109;SDS011;59983;52.010;5.420;2023-05-07T06:13:31;15.53;;;14.03;;
72109;SDS011;59983;52.010;5.420;2023-05-07T06:15:57;15.50;;;14.05;;
72109;SDS011;59983;52.010;5.420;2023-05-07T06:18:24;15.35;;;13.85;;
72109;SDS011;59983;52.010;5.420;2023-05-07T06:20:51;15.60;;;14.10;;
72109;SDS011;59983;52.010;5.420;2023-05-07T06:23:18;17.23;;;15.43;;
72109;SDS011;59983;52.010;5.420;2023-05-07T06:25:50;20.50;;;15.00;;
72109;SDS011;59983;52.010;5.420;2023-05-07T06:28:17;15.95;;;14.43;;
72109;SDS011;59983;52.010;5.420;2023-05-07T06:30:44;16.27;;;14.57;;
72109;SDS011;59983;52.010;5.420;2023-05-07T06:33:11;16.15;;;14.57;;
72109;SDS011;59983;52.010;5.420;2023-05-07T06:35:37;16.60;;;14.95;;
72109;SDS011;59983;52.010;5.420;2023-05-07T06:38:04;15.33;;;13.77;;
72109;SDS011;59983;52.010;5.420;2023-05-07T06:40:31;16.88;;;15.27;;
72109;SDS011;59983;52.010;5.420;2023-05-07T06:42:57;17.05;;;15.32;;
72109;SDS011;59983;52.010;5.420;2023-05-07T06:45:24;19.00;;;15.32;;
72109;SDS011;59983;52.010;5.420;2023-05-07T06:47:51;16.60;;;15.10;;
72109;SDS011;59983;52.010;5.420;2023-05-07T06:50:18;17.07;;;15.37;;
72109;SDS011;59983;52.010;5.420;2023-05-07T06:52:44;17.63;;;15.82;;
72109;SDS011;59983;52.010;5.420;2023-05-07T06:55:11;17.70;;;15.80;;
72109;SDS011;59983;52.010;5.420;2023-05-07T06:57:37;17.38;;;15.73;;
72109;SDS011;59983;52.010;5.420;2023-05-07T07:00:04;17.60;;;15.90;;
72109;SDS011;59983;52.010;5.420;2023-05-07T07:02:36;17.67;;;16.17;;
72109;SDS011;59983;52.010;5.420;2023-05-07T07:05:03;17.98;;;16.27;;
72109;SDS011;59983;52.010;5.420;2023-05-07T07:07:30;16.83;;;14.88;;
72109;SDS011;59983;52.010;5.420;2023-05-07T07:09:56;17.48;;;15.65;;
72109;SDS011;59983;52.010;5.420;2023-05-07T07:12:23;16.98;;;15.23;;
72109;SDS011;59983;52.010;5.420;2023-05-07T07:14:51;16.40;;;14.93;;
72109;SDS011;59983;52.010;5.420;2023-05-07T07:17:17;16.58;;;14.88;;
72109;SDS011;59983;52.010;5.420;2023-05-07T07:19:44;16.92;;;15.13;;
72109;SDS011;59983;52.010;5.420;2023-05-07T07:22:10;18.10;;;16.40;;
72109;SDS011;59983;52.010;5.420;2023-05-07T07:24:37;17.27;;;15.63;;
72109;SDS011;59983;52.010;5.420;2023-05-07T07:27:03;16.17;;;14.77;;
72109;SDS011;59983;52.010;5.420;2023-05-07T07:29:31;15.55;;;14.13;;
72109;SDS011;59983;52.010;5.420;2023-05-07T07:31:57;15.00;;;13.55;;
72109;SDS011;59983;52.010;5.420;2023-05-07T07:34:24;15.57;;;14.05;;
72109;SDS011;59983;52.010;5.420;2023-05-07T07:36:50;16.17;;;14.55;;
72109;SDS011;59983;52.010;5.420;2023-05-07T07:39:17;16.27;;;14.77;;
72109;SDS011;59983;52.010;5.420;2023-05-07T07:41:43;16.02;;;14.65;;
72109;SDS011;59983;52.010;5.420;2023-05-07T07:44:10;14.50;;;13.25;;
72109;SDS011;59983;52.010;5.420;2023-05-07T07:46:41;14.80;;;13.40;;
72109;SDS011;59983;52.010;5.420;2023-05-07T07:49:08;14.75;;;13.35;;
72109;SDS011;59983;52.010;5.420;2023-05-07T07:51:34;15.03;;;13.73;;
72109;SDS011;59983;52.010;5.420;2023-05-07T07:54:01;14.32;;;12.85;;
72109;SDS011;59983;52.010;5.420;2023-05-07T07:56:28;14.60;;;13.27;;
72109;SDS011;59983;52.010;5.420;2023-05-07T07:58:55;14.07;;;12.75;;
72109;SDS011;59983;52.010;5.420;2023-05-07T08:01:21;14.90;;;13.35;;
72109;SDS011;59983;52.010;5.420;2023-05-07T08:03:48;14.50;;;13.20;;
72109;SDS011;59983;52.010;5.420;2023-05-07T08:06:15;15.85;;;14.35;;
72109;SDS011;59983;52.010;5.420;2023-05-07T08:08:41;15.05;;;13.65;;
72109;SDS011;59983;52.010;5.420;2023-05-07T08:11:08;17.27;;;15.45;;
72109;SDS011;59983;52.010;5.420;2023-05-07T08:13:34;16.50;;;14.82;;
72109;SDS011;59983;52.010;5.420;2023-05-07T08:16:01;15.90;;;14.33;;
72109;SDS011;59983;52.010;5.420;2023-05-07T08:18:28;16.30;;;14.82;;
72109;SDS011;59983;52.010;5.420;2023-05-07T08:20:55;16.58;;;14.75;;
72109;SDS011;59983;52.010;5.420;2023-05-07T08:23:21;16.88;;;15.15;;
72109;SDS011;59983;52.010;5.420;2023-05-07T08:25:51;15.85;;;14.25;;
72109;SDS011;59983;52.010;5.420;2023-05-07T08:28:18;17.73;;;15.87;;
72109;SDS011;59983;52.010;5.420;2023-05-07T08:30:45;16.23;;;14.70;;
72109;SDS011;59983;52.010;5.420;2023-05-07T08:33:12;17.88;;;16.08;;
72109;SDS011;59983;52.010;5.420;2023-05-07T08:35:39;16.73;;;14.93;;
72109;SDS011;59983;52.010;5.420;2023-05-07T08:38:06;16.85;;;15.10;;
72109;SDS011;59983;52.010;5.420;2023-05-07T08:40:36;16.83;;;15.17;;
72109;SDS011;59983;52.010;5.420;2023-05-07T08:43:07;15.55;;;13.77;;
72109;SDS011;59983;52.010;5.420;2023-05-07T08:45:34;16.27;;;14.85;;
72109;SDS011;59983;52.010;5.420;2023-05-07T08:48:03;17.70;;;15.10;;
72109;SDS011;59983;52.010;5.420;2023-05-07T08:50:35;16.83;;;15.23;;
72109;SDS011;59983;52.010;5.420;2023-05-07T08:53:02;17.43;;;15.70;;
72109;SDS011;59983;52.010;5.420;2023-05-07T08:55:29;16.92;;;15.32;;
72109;SDS011;59983;52.010;5.420;2023-05-07T08:57:56;16.98;;;15.48;;
72109;SDS011;59983;52.010;5.420;2023-05-07T09:00:23;17.83;;;16.08;;
72109;SDS011;59983;52.010;5.420;2023-05-07T09:02:49;15.95;;;13.88;;
72109;SDS011;59983;52.010;5.420;2023-05-07T09:05:16;16.53;;;14.93;;
72109;SDS011;59983;52.010;5.420;2023-05-07T09:07:43;17.08;;;15.32;;
72109;SDS011;59983;52.010;5.420;2023-05-07T09:10:09;17.52;;;14.43;;
72109;SDS011;59983;52.010;5.420;2023-05-07T09:12:37;18.35;;;14.70;;
72109;SDS011;59983;52.010;5.420;2023-05-07T09:15:04;16.88;;;15.15;;
72109;SDS011;59983;52.010;5.420;2023-05-07T09:17:31;15.80;;;14.40;;
72109;SDS011;59983;52.010;5.420;2023-05-07T09:20:04;15.77;;;14.35;;
72109;SDS011;59983;52.010;5.420;2023-05-07T09:22:36;17.02;;;15.35;;
72109;SDS011;59983;52.010;5.420;2023-05-07T09:25:04;17.75;;;16.17;;
72109;SDS011;59983;52.010;5.420;2023-05-07T09:27:32;16.38;;;14.88;;
72109;SDS011;59983;52.010;5.420;2023-05-07T09:29:59;17.47;;;15.70;;
72109;SDS011;59983;52.010;5.420;2023-05-07T09:32:29;16.60;;;15.02;;
72109;SDS011;59983;52.010;5.420;2023-05-07T09:34:57;15.60;;;13.95;;
72109;SDS011;59983;52.010;5.420;2023-05-07T09:37:25;15.50;;;14.02;;
72109;SDS011;59983;52.010;5.420;2023-05-07T09:39:51;15.00;;;13.45;;
72109;SDS011;59983;52.010;5.420;2023-05-07T09:42:22;15.70;;;14.30;;
72109;SDS011;59983;52.010;5.420;2023-05-07T09:44:50;15.30;;;13.90;;
72109;SDS011;59983;52.010;5.420;2023-05-07T09:47:19;14.38;;;13.20;;
72109;SDS011;59983;52.010;5.420;2023-05-07T09:49:46;14.88;;;13.38;;
72109;SDS011;59983;52.010;5.420;2023-05-07T09:52:14;15.13;;;13.63;;
72109;SDS011;59983;52.010;5.420;2023-05-07T09:54:42;14.60;;;13.20;;
72109;SDS011;59983;52.010;5.420;2023-05-07T09:57:10;14.90;;;13.60;;
72109;SDS011;59983;52.010;5.420;2023-05-07T09:59:38;16.20;;;13.02;;
72109;SDS011;59983;52.010;5.420;2023-05-07T10:02:08;13.90;;;12.60;;
72109;SDS011;59983;52.010;5.420;2023-05-07T10:04:36;14.75;;;13.30;;
72109;SDS011;59983;52.010;5.420;2023-05-07T10:07:03;13.93;;;12.50;;
72109;SDS011;59983;52.010;5.420;2023-05-07T10:09:31;13.13;;;11.93;;
72109;SDS011;59983;52.010;5.420;2023-05-07T10:11:58;12.63;;;11.50;;
72109;SDS011;59983;52.010;5.420;2023-05-07T10:14:25;13.57;;;12.30;;
72109;SDS011;59983;52.010;5.420;2023-05-07T10:16:54;12.88;;;11.60;;
72109;SDS011;59983;52.010;5.420;2023-05-07T10:19:22;14.00;;;12.70;;
72109;SDS011;59983;52.010;5.420;2023-05-07T10:21:56;13.80;;;12.50;;
72109;SDS011;59983;52.010;5.420;2023-05-07T10:24:33;13.05;;;11.75;;
72109;SDS011;59983;52.010;5.420;2023-05-07T10:27:07;12.30;;;11.20;;
72109;SDS011;59983;52.010;5.420;2023-05-07T10:29:38;14.57;;;12.60;;
72109;SDS011;59983;52.010;5.420;2023-05-07T10:34:54;12.73;;;11.68;;
72109;SDS011;59983;52.010;5.420;2023-05-07T10:37:22;13.85;;;12.45;;
72109;SDS011;59983;52.010;5.420;2023-05-07T10:39:50;12.57;;;11.43;;
72109;SDS011;59983;52.010;5.420;2023-05-07T10:42:17;12.35;;;11.23;;
72109;SDS011;59983;52.010;5.420;2023-05-07T10:44:44;12.80;;;11.60;;
72109;SDS011;59983;52.010;5.420;2023-05-07T10:47:12;13.48;;;10.93;;
72109;SDS011;59983;52.010;5.420;2023-05-07T10:52:13;12.43;;;10.60;;
72109;SDS011;59983;52.010;5.420;2023-05-07T10:57:43;11.73;;;9.97;;
72109;SDS011;59983;52.010;5.420;2023-05-07T11:05:29;7.80;;;7.10;;
72109;SDS011;59983;52.010;5.420;2023-05-07T11:08:00;10.75;;;6.80;;
72109;SDS011;59983;52.010;5.420;2023-05-07T11:13:42;7.47;;;6.63;;
72109;SDS011;59983;52.010;5.420;2023-05-07T11:16:22;7.47;;;6.70;;
72109;SDS011;59983;52.010;5.420;2023-05-07T11:18:54;6.30;;;5.45;;
72109;SDS011;59983;52.010;5.420;2023-05-07T11:21:37;8.45;;;5.10;;
72109;SDS011;59983;52.010;5.420;2023-05-07T11:24:09;6.77;;;5.40;;
72109;SDS011;59983;52.010;5.420;2023-05-07T11:26:49;5.07;;;4.35;;
72109;SDS011;59983;52.010;5.420;2023-05-07T11:29:19;8.18;;;5.78;;
72109;SDS011;59983;52.010;5.420;2023-05-07T11:31:49;8.52;;;5.03;;
72109;SDS011;59983;52.010;5.420;2023-05-07T11:34:23;5.03;;;4.53;;
72109;SDS011;59983;52.010;5.420;2023-05-07T11:36:51;6.33;;;4.10;;
72109;SDS011;59983;52.010;5.420;2023-05-07T11:39:25;5.38;;;4.80;;
72109;SDS011;59983;52.010;5.420;2023-05-07T11:41:52;7.68;;;4.68;;
72109;SDS011;59983;52.010;5.420;2023-05-07T11:44:18;9.23;;;4.88;;
72109;SDS011;59983;52.010;5.420;2023-05-07T11:46:45;5.82;;;5.35;;
72109;SDS011;59983;52.010;5.420;2023-05-07T11:49:12;8.07;;;5.60;;
72109;SDS011;59983;52.010;5.420;2023-05-07T11:51:39;8.23;;;6.07;;
72109;SDS011;59983;52.010;5.420;2023-05-07T11:54:07;6.90;;;6.22;;
72109;SDS011;59983;52.010;5.420;2023-05-07T11:56:35;3.97;;;3.60;;
72109;SDS011;59983;52.010;5.420;2023-05-07T11:59:01;7.28;;;4.50;;
72109;SDS011;59983;52.010;5.420;2023-05-07T12:01:28;5.73;;;4.30;;
72109;SDS011;59983;52.010;5.420;2023-05-07T12:03:55;5.45;;;4.35;;
72109;SDS011;59983;52.010;5.420;2023-05-07T12:06:21;5.05;;;3.83;;
72109;SDS011;59983;52.010;5.420;2023-05-07T12:08:48;4.88;;;4.32;;
72109;SDS011;59983;52.010;5.420;2023-05-07T12:11:24;5.75;;;4.25;;
72109;SDS011;59983;52.010;5.420;2023-05-07T12:13:53;5.50;;;4.60;;
72109;SDS011;59983;52.010;5.420;2023-05-07T12:16:24;8.25;;;4.70;;
72109;SDS011;59983;52.010;5.420;2023-05-07T12:18:51;6.68;;;4.60;;
72109;SDS011;59983;52.010;5.420;2023-05-07T12:21:21;5.18;;;4.55;;
72109;SDS011;59983;52.010;5.420;2023-05-07T12:23:48;6.65;;;4.93;;
72109;SDS011;59983;52.010;5.420;2023-05-07T12:26:14;5.87;;;5.07;;
72109;SDS011;59983;52.010;5.420;2023-05-07T12:28:41;5.50;;;4.30;;
72109;SDS011;59983;52.010;5.420;2023-05-07T12:31:07;7.40;;;5.10;;
72109;SDS011;59983;52.010;5.420;2023-05-07T12:33:34;5.32;;;4.93;;
72109;SDS011;59983;52.010;5.420;2023-05-07T12:36:03;6.18;;;5.20;;
72109;SDS011;59983;52.010;5.420;2023-05-07T12:38:35;6.20;;;5.60;;
72109;SDS011;59983;52.010;5.420;2023-05-07T12:41:03;5.18;;;4.68;;
72109;SDS011;59983;52.010;5.420;2023-05-07T12:43:30;6.82;;;4.53;;
72109;SDS011;59983;52.010;5.420;2023-05-07T12:45:57;7.00;;;4.93;;
72109;SDS011;59983;52.010;5.420;2023-05-07T12:48:27;5.63;;;5.00;;
72109;SDS011;59983;52.010;5.420;2023-05-07T12:50:54;7.57;;;4.60;;
72109;SDS011;59983;52.010;5.420;2023-05-07T12:53:21;5.18;;;4.20;;
72109;SDS011;59983;52.010;5.420;2023-05-07T12:55:51;4.85;;;4.45;;
72109;SDS011;59983;52.010;5.420;2023-05-07T12:58:19;5.72;;;4.50;;
72109;SDS011;59983;52.010;5.420;2023-05-07T13:00:59;4.85;;;4.45;;
72109;SDS011;59983;52.010;5.420;2023-05-07T13:03:28;6.70;;;5.50;;
72109;SDS011;59983;52.010;5.420;2023-05-07T13:06:00;6.97;;;5.47;;
72109;SDS011;59983;52.010;5.420;2023-05-07T13:08:32;5.90;;;5.22;;
72109;SDS011;59983;52.010;5.420;2023-05-07T13:11:04;6.53;;;5.93;;
72109;SDS011;59983;52.010;5.420;2023-05-07T13:13:31;5.05;;;4.65;;
72109;SDS011;59983;52.010;5.420;2023-05-07T13:15:59;5.43;;;4.50;;
72109;SDS011;59983;52.010;5.420;2023-05-07T13:18:26;11.80;;;4.78;;
72109;SDS011;59983;52.010;5.420;2023-05-07T13:20:55;6.03;;;5.07;;
72109;SDS011;59983;52.010;5.420;2023-05-07T13:23:22;10.32;;;6.13;;
72109;SDS011;59983;52.010;5.420;2023-05-07T13:25:49;5.70;;;5.30;;
72109;SDS011;59983;52.010;5.420;2023-05-07T13:28:16;5.77;;;4.97;;
72109;SDS011;59983;52.010;5.420;2023-05-07T13:30:43;6.53;;;5.30;;
72109;SDS011;59983;52.010;5.420;2023-05-07T13:33:10;5.35;;;4.85;;
72109;SDS011;59983;52.010;5.420;2023-05-07T13:35:37;6.05;;;4.30;;
72109;SDS011;59983;52.010;5.420;2023-05-07T13:38:03;6.13;;;4.03;;
72109;SDS011;59983;52.010;5.420;2023-05-07T13:40:30;6.40;;;4.03;;
72109;SDS011;59983;52.010;5.420;2023-05-07T13:42:59;4.47;;;4.07;;
72109;SDS011;59983;52.010;5.420;2023-05-07T13:45:28;5.53;;;3.72;;
72109;SDS011;59983;52.010;5.420;2023-05-07T13:47:58;4.35;;;3.38;;
72109;SDS011;59983;52.010;5.420;2023-05-07T13:50:24;5.05;;;3.72;;
72109;SDS011;59983;52.010;5.420;2023-05-07T13:52:53;5.43;;;4.80;;
72109;SDS011;59983;52.010;5.420;2023-05-07T13:55:20;6.05;;;4.88;;
72109;SDS011;59983;52.010;5.420;2023-05-07T13:57:47;9.13;;;5.72;;
72109;SDS011;59983;52.010;5.420;2023-05-07T14:00:14;6.68;;;4.88;;
72109;SDS011;59983;52.010;5.420;2023-05-07T14:02:42;5.82;;;5.25;;
72109;SDS011;59983;52.010;5.420;2023-05-07T14:05:09;6.20;;;5.40;;
72109;SDS011;59983;52.010;5.420;2023-05-07T14:07:36;8.00;;;6.85;;
72109;SDS011;59983;52.010;5.420;2023-05-07T14:10:03;6.90;;;6.30;;
72109;SDS011;59983;52.010;5.420;2023-05-07T14:12:30;9.90;;;5.95;;
72109;SDS011;59983;52.010;5.420;2023-05-07T14:14:57;6.40;;;5.80;;
72109;SDS011;59983;52.010;5.420;2023-05-07T14:17:24;9.43;;;6.40;;
72109;SDS011;59983;52.010;5.420;2023-05-07T14:19:52;8.93;;;6.93;;
72109;SDS011;59983;52.010;5.420;2023-05-07T14:22:21;7.30;;;6.35;;
72109;SDS011;59983;52.010;5.420;2023-05-07T14:24:49;7.47;;;6.78;;
72109;SDS011;59983;52.010;5.420;2023-05-07T14:27:31;7.07;;;6.53;;
72109;SDS011;59983;52.010;5.420;2023-05-07T14:29:58;6.73;;;6.20;;
72109;SDS011;59983;52.010;5.420;2023-05-07T14:32:24;6.25;;;5.65;;
72109;SDS011;59983;52.010;5.420;2023-05-07T14:34:51;6.75;;;5.32;;
72109;SDS011;59983;52.010;5.420;2023-05-07T14:37:17;5.80;;;5.13;;
72109;SDS011;59983;52.010;5.420;2023-05-07T14:39:46;6.93;;;6.32;;
72109;SDS011;59983;52.010;5.420;2023-05-07T14:42:15;5.90;;;5.40;;
72109;SDS011;59983;52.010;5.420;2023-05-07T14:44:42;8.00;;;5.63;;
72109;SDS011;59983;52.010;5.420;2023-05-07T14:47:09;6.10;;;5.22;;
72109;SDS011;59983;52.010;5.420;2023-05-07T14:49:35;6.20;;;3.80;;